createdAt,value
2023-04-08T00:04:34.382Z,98769.63
2023-04-08T00:15:00.521Z,98773.23
2023-04-08T00:25:26.515Z,98781.37
2023-04-08T00:35:53.049Z,98790.68
2023-04-08T00:46:18.878Z,98797.77
2023-04-08T00:56:47.162Z,98801.77
2023-04-08T01:07:19.182Z,98803.95
2023-04-08T01:17:47.574Z,98805.02
2023-04-08T01:28:17.802Z,98808.65
2023-04-08T01:38:44.417Z,98810.90
2023-04-08T01:49:11.277Z,98818.76
2023-04-08T01:59:40.246Z,98827.95
2023-04-08T02:10:06.748Z,98829.48
2023-04-08T02:20:38.549Z,98843.17
2023-04-08T02:31:07.463Z,98848.56
2023-04-08T02:41:33.639Z,98849.16
2023-04-08T02:51:59.387Z,98850.79
2023-04-08T03:02:25.638Z,98855.54
2023-04-08T03:12:51.577Z,98866.04
2023-04-08T03:23:16.944Z,98867.71
2023-04-08T03:33:42.673Z,98869.96
2023-04-08T03:44:08.587Z,98879.92
2023-04-08T03:54:34.431Z,98891.31
2023-04-08T04:05:10.302Z,98897.52
2023-04-08T04:15:39.143Z,98909.02
2023-04-08T04:26:08.816Z,98920.06
2023-04-08T04:36:35.593Z,98923.73
2023-04-08T04:47:01.381Z,98934.34
2023-04-08T04:57:27.482Z,98942.67
2023-04-08T05:07:53.983Z,98949.93
2023-04-08T05:18:19.876Z,98958.38
2023-04-08T05:28:45.831Z,98965.67
2023-04-08T05:39:11.594Z,98978.52
2023-04-08T05:49:37.698Z,98988.95
2023-04-08T06:00:03.696Z,98999.71
2023-04-08T06:10:29.721Z,99010.41
2023-04-08T06:20:55.599Z,99019.85
2023-04-08T06:31:22.006Z,99025.88
2023-04-08T06:41:48.089Z,99038.15
2023-04-08T06:52:15.186Z,99050.98
2023-04-08T07:02:41.173Z,99056.60
2023-04-08T07:13:07.674Z,99070.65
2023-04-08T07:23:33.402Z,99072.42
2023-04-08T07:33:59.161Z,99072.10
2023-04-08T07:44:24.937Z,99087.42
2023-04-08T07:54:50.740Z,99083.23
2023-04-08T08:05:16.648Z,99087.48
2023-04-08T08:15:42.813Z,99095.90
2023-04-08T08:26:11.139Z,99092.98
2023-04-08T08:36:35.797Z,99097.02
2023-04-08T08:47:01.826Z,99097.02
2023-04-08T08:57:27.983Z,99102.02
2023-04-08T09:07:53.793Z,99109.70
2023-04-08T09:18:26.453Z,99122.05
2023-04-08T09:29:14.383Z,99131.38
2023-04-08T09:39:44.313Z,99137.58
2023-04-08T09:50:11.571Z,99125.48
2023-04-08T10:00:41.261Z,99128.23
2023-04-08T10:11:08.203Z,99132.14
2023-04-08T10:21:43.470Z,99133.98
2023-04-08T10:32:09.284Z,99137.71
2023-04-08T10:42:34.915Z,99138.97
2023-04-08T10:53:01.461Z,99140.93
2023-04-08T11:03:31.001Z,99139.40
2023-04-08T11:13:58.408Z,99140.91
2023-04-08T11:24:24.577Z,99143.57
2023-04-08T11:34:50.321Z,99133.14
2023-04-08T11:45:17.817Z,99130.24
2023-04-08T11:55:43.382Z,99135.12
2023-04-08T12:06:09.972Z,99144.45
2023-04-08T12:16:35.946Z,99143.08
2023-04-08T12:27:04.810Z,99135.80
2023-04-08T12:37:30.864Z,99133.40
2023-04-08T12:47:57.622Z,99148.61
2023-04-08T12:58:23.556Z,99145.02
2023-04-08T13:08:50.307Z,99157.64
2023-04-08T13:19:16.792Z,99165.17
2023-04-08T13:29:42.498Z,99166.83
2023-04-08T13:40:09.983Z,99170.61
2023-04-08T13:50:35.734Z,99172.69
2023-04-08T14:01:01.968Z,99175.79
2023-04-08T14:11:27.599Z,99174.14
2023-04-08T14:21:53.709Z,99171.15
2023-04-08T14:32:19.586Z,99171.71
2023-04-08T14:42:45.730Z,99169.14
2023-04-08T14:53:11.900Z,99173.02
2023-04-08T15:03:37.895Z,99170.80
2023-04-08T15:14:04.056Z,99174.43
2023-04-08T15:24:30.405Z,99180.10
2023-04-08T15:34:56.710Z,99179.37
2023-04-08T15:45:23.271Z,99181.17
2023-04-08T15:55:50.369Z,99189.08
2023-04-08T16:06:16.157Z,99194.05
2023-04-08T16:16:42.187Z,99193.00
2023-04-08T16:27:08.242Z,99190.56
2023-04-08T16:37:35.194Z,99204.26
2023-04-08T16:48:01.569Z,99205.61
2023-04-08T16:58:27.863Z,99213.11
2023-04-08T17:08:53.853Z,99218.45
2023-04-08T17:19:19.907Z,99228.52
2023-04-08T17:29:46.197Z,99235.77
2023-04-08T17:40:13.244Z,99249.80
2023-04-08T17:50:38.971Z,99259.10
2023-04-08T18:01:04.974Z,99264.34
2023-04-08T18:11:31.263Z,99275.50
2023-04-08T18:21:57.050Z,99281.02
2023-04-08T18:32:23.022Z,99288.81
2023-04-08T18:42:49.027Z,99299.48
2023-04-08T18:53:14.699Z,99308.02
2023-04-08T19:03:40.989Z,99312.26
2023-04-08T19:14:07.972Z,99315.09
2023-04-08T19:24:34.114Z,99313.18
2023-04-08T19:35:01.592Z,99310.06
2023-04-08T19:45:28.334Z,99311.20
2023-04-08T19:56:01.968Z,99314.36
2023-04-08T20:06:28.537Z,99313.89
2023-04-08T20:16:54.468Z,99312.33
2023-04-08T20:27:20.343Z,99304.36
2023-04-08T20:37:46.471Z,99308.63
2023-04-08T20:48:13.696Z,99314.14
2023-04-08T20:58:39.720Z,99321.15
2023-04-08T21:09:05.902Z,99326.61
2023-04-08T21:19:31.534Z,99321.98
2023-04-08T21:29:57.447Z,99325.16
2023-04-08T21:40:23.365Z,99329.18
2023-04-08T21:50:50.380Z,99320.21
2023-04-08T22:01:15.992Z,99300.92
2023-04-08T22:11:42.974Z,99299.67
2023-04-08T22:22:08.731Z,99311.02
2023-04-08T22:32:34.728Z,99316.92
2023-04-08T22:43:00.717Z,99315.14
2023-04-08T22:53:27.642Z,99315.98
2023-04-08T23:03:53.529Z,99311.25
2023-04-08T23:14:19.654Z,99306.30
2023-04-08T23:24:45.421Z,99310.75
2023-04-08T23:35:11.457Z,99308.56
2023-04-08T23:45:36.826Z,99304.79
2023-04-08T23:56:08.470Z,99303.70
